Time;durP1;ratioP1;P1;durP2;ratioP2;P2;SDS_P1;SDS_P2;PMS_P1;PMS_P2;Temp;Humidity;BMP_temperature;BMP_pressure;BME280_temperature;BME280_humidity;BME280_pressure;Samples;Min_cycle;Max_cycle;Signal;HPM_P1;HPM_P2
2022/10/26 00:02:09;;;;;;;11.00;6.33;;;13.40;47.90;;;;;;5014504;28;20461;-44
2022/10/26 00:04:35;;;;;;;6.77;4.97;;;13.50;47.80;;;;;;5014620;28;20543;-44
2022/10/26 00:07:00;;;;;;;5.60;3.93;;;13.40;47.80;;;;;;5014291;28;20194;-44
2022/10/26 00:09:26;;;;;;;6.87;5.33;;;13.40;47.70;;;;;;5014626;28;20582;-43
2022/10/26 00:11:52;;;;;;;4.70;4.30;;;13.40;47.70;;;;;;5014426;28;20198;-43
2022/10/26 00:14:18;;;;;;;6.32;5.30;;;13.40;47.70;;;;;;5014619;28;20175;-44
2022/10/26 00:16:44;;;;;;;6.97;4.03;;;13.30;47.60;;;;;;5013915;28;20227;-42
2022/10/26 00:19:09;;;;;;;5.07;4.60;;;13.30;47.50;;;;;;5014610;28;20418;-44
2022/10/26 00:21:35;;;;;;;6.57;4.87;;;13.20;47.30;;;;;;5014212;28;20624;-43
2022/10/26 00:24:01;;;;;;;5.37;4.43;;;13.20;47.50;;;;;;5014480;28;20167;-44
2022/10/26 00:26:27;;;;;;;5.57;4.97;;;13.20;47.70;;;;;;5013959;28;20175;-43
2022/10/26 00:28:53;;;;;;;5.93;5.10;;;13.10;47.90;;;;;;5014247;28;20178;-43
2022/10/26 00:31:19;;;;;;;5.85;4.32;;;13.10;47.80;;;;;;5014207;28;20527;-44
2022/10/26 00:33:45;;;;;;;4.57;4.03;;;13.10;47.90;;;;;;5014159;28;20182;-44
2022/10/26 00:36:15;;;;;;;5.60;4.30;;;13.10;47.90;;;;;;5013537;28;20181;-42
2022/10/26 00:38:44;;;;;;;5.82;3.72;;;13.10;47.80;;;;;;5013932;28;20501;-42
2022/10/26 00:41:15;;;;;;;5.15;4.38;;;13.10;48.40;;;;;;5013923;28;20594;-42
2022/10/26 00:43:41;;;;;;;8.95;5.28;;;13.10;47.80;;;;;;5014053;28;20246;-42
2022/10/26 00:46:20;;;;;;;4.65;3.78;;;13.00;47.50;;;;;;5013340;28;20167;-42
2022/10/26 00:48:51;;;;;;;5.07;3.97;;;13.00;47.70;;;;;;5014139;28;20185;-42
2022/10/26 00:51:37;;;;;;;6.18;4.32;;;12.90;47.60;;;;;;5013891;28;20724;-42
2022/10/26 00:54:08;;;;;;;5.35;3.95;;;12.90;47.60;;;;;;5013896;28;20182;-41
2022/10/26 00:56:34;;;;;;;5.40;4.47;;;12.90;47.50;;;;;;5013067;28;20666;-43
2022/10/26 00:59:04;;;;;;;4.60;4.00;;;12.90;47.50;;;;;;5013975;28;20564;-44
2022/10/26 01:01:32;;;;;;;6.40;4.50;;;12.90;47.50;;;;;;5013457;28;20221;-44
2022/10/26 01:03:59;;;;;;;6.45;4.78;;;12.80;47.50;;;;;;5013645;28;20217;-43
2022/10/26 01:06:28;;;;;;;3.97;3.40;;;12.90;47.60;;;;;;5013006;28;20183;-43
2022/10/26 01:08:54;;;;;;;4.75;4.03;;;12.90;47.50;;;;;;5013454;28;20250;-44
2022/10/26 01:11:20;;;;;;;5.23;3.73;;;12.80;47.30;;;;;;5013639;28;20358;-44
2022/10/26 01:13:47;;;;;;;8.63;4.50;;;12.70;47.40;;;;;;5013663;28;20461;-44
2022/10/26 01:16:31;;;;;;;4.85;3.65;;;12.70;47.60;;;;;;5012932;28;20475;-43
2022/10/26 01:19:22;;;;;;;4.43;3.88;;;12.70;47.70;;;;;;5013583;28;20170;-44
2022/10/26 01:21:57;;;;;;;7.32;4.53;;;12.70;47.60;;;;;;5013085;28;20214;-43
2022/10/26 01:24:49;;;;;;;4.13;3.75;;;12.60;47.50;;;;;;5013385;28;20170;-43
2022/10/26 01:27:28;;;;;;;7.07;4.30;;;12.60;47.30;;;;;;5012700;28;20191;-43
2022/10/26 01:30:14;;;;;;;4.45;3.80;;;12.60;47.40;;;;;;5013372;28;20194;-44
2022/10/26 01:33:17;;;;;;;8.65;4.38;;;12.60;47.40;;;;;;5013176;28;20190;-43
2022/10/26 01:36:10;;;;;;;3.65;3.20;;;12.50;47.20;;;;;;5012492;28;20174;-43
2022/10/26 01:38:59;;;;;;;3.53;3.22;;;12.50;47.30;;;;;;5012965;28;20167;-43
2022/10/26 01:41:33;;;;;;;5.45;4.20;;;12.50;47.40;;;;;;5013040;28;20210;-44
2022/10/26 01:44:10;;;;;;;8.20;4.70;;;12.40;47.40;;;;;;5013164;28;20163;-45
2022/10/26 01:46:40;;;;;;;8.70;4.72;;;12.40;47.50;;;;;;5012249;28;20183;-43
2022/10/26 01:49:09;;;;;;;6.63;4.38;;;12.40;47.50;;;;;;5012311;28;20543;-44
2022/10/26 01:51:36;;;;;;;10.40;3.60;;;12.40;48.20;;;;;;5012798;28;20293;-45
2022/10/26 01:54:02;;;;;;;4.78;3.22;;;12.40;47.40;;;;;;5012715;28;20665;-44
2022/10/26 01:56:33;;;;;;;7.53;3.53;;;12.40;47.40;;;;;;5012123;28;20257;-43
2022/10/26 01:59:12;;;;;;;5.57;3.67;;;12.40;47.20;;;;;;5012549;28;20394;-44
2022/10/26 02:01:47;;;;;;;6.00;3.70;;;12.40;47.20;;;;;;5012394;28;20213;-42
2022/10/26 02:04:31;;;;;;;4.28;3.22;;;12.40;47.20;;;;;;5012852;28;20170;-43
2022/10/26 02:07:22;;;;;;;4.50;3.25;;;12.30;47.10;;;;;;5012016;28;20249;-44
2022/10/26 02:10:03;;;;;;;11.45;3.70;;;12.30;47.20;;;;;;5012664;28;20171;-43
2022/10/26 02:12:41;;;;;;;4.47;3.15;;;12.30;47.20;;;;;;5012741;28;20198;-44
2022/10/26 02:15:20;;;;;;;5.65;3.58;;;12.20;47.10;;;;;;5012756;28;20171;-43
2022/10/26 02:17:55;;;;;;;3.25;2.95;;;12.20;47.10;;;;;;5011923;28;20155;-42
2022/10/26 02:20:30;;;;;;;7.82;4.05;;;12.10;47.20;;;;;;5012663;28;20285;-41
2022/10/26 02:23:00;;;;;;;15.77;4.30;;;12.10;47.10;;;;;;5012319;28;20182;-43
2022/10/26 02:25:30;;;;;;;13.25;4.38;;;12.10;47.20;;;;;;5012246;28;20536;-44
2022/10/26 02:28:04;;;;;;;6.63;4.00;;;12.10;47.20;;;;;;5012154;28;20177;-43
2022/10/26 02:30:32;;;;;;;6.90;3.63;;;12.10;47.20;;;;;;5012342;28;20278;-43
2022/10/26 02:32:59;;;;;;;5.53;3.70;;;12.10;47.20;;;;;;5012549;28;20202;-43
2022/10/26 02:35:32;;;;;;;5.63;3.78;;;12.10;47.10;;;;;;5012268;28;20214;-45
2022/10/26 02:38:01;;;;;;;4.25;3.22;;;12.00;46.90;;;;;;5012485;28;20173;-42
2022/10/26 02:40:28;;;;;;;3.97;3.20;;;12.00;46.90;;;;;;5012118;28;20210;-41
2022/10/26 02:42:59;;;;;;;5.03;4.53;;;11.90;47.10;;;;;;5012058;28;20187;-44
2022/10/26 02:45:29;;;;;;;8.50;4.10;;;11.90;47.40;;;;;;5012094;28;20213;-44
2022/10/26 02:47:55;;;;;;;4.40;3.20;;;11.80;47.60;;;;;;5012102;28;20182;-43
2022/10/26 02:50:27;;;;;;;6.05;3.83;;;11.80;47.70;;;;;;5012085;28;20186;-42
2022/10/26 02:52:56;;;;;;;3.58;3.08;;;11.70;47.70;;;;;;5012071;28;20289;-43
2022/10/26 02:55:27;;;;;;;7.05;3.97;;;11.80;47.70;;;;;;5011941;28;20178;-44
2022/10/26 02:58:01;;;;;;;5.82;3.88;;;11.80;47.60;;;;;;5011606;28;20240;-43
2022/10/26 03:00:28;;;;;;;5.40;3.88;;;11.80;47.50;;;;;;5012044;28;20202;-44
2022/10/26 03:02:57;;;;;;;4.60;3.25;;;11.90;47.60;;;;;;5015159;28;20206;-45
2022/10/26 03:05:28;;;;;;;5.80;5.30;;;11.90;47.50;;;;;;5015858;28;20178;-44
2022/10/26 03:07:55;;;;;;;4.55;3.35;;;11.90;47.40;;;;;;5014997;28;20194;-43
2022/10/26 03:10:21;;;;;;;6.88;4.65;;;11.80;47.30;;;;;;5015697;28;20179;-45
2022/10/26 03:12:47;;;;;;;4.00;3.30;;;11.80;47.30;;;;;;5015756;28;20190;-44
2022/10/26 03:15:14;;;;;;;6.68;3.40;;;11.80;47.30;;;;;;5015596;28;20167;-43
2022/10/26 03:17:40;;;;;;;4.95;3.67;;;11.80;47.10;;;;;;5015074;28;20169;-43
2022/10/26 03:20:07;;;;;;;5.55;2.80;;;11.80;47.20;;;;;;5015490;28;20183;-43
2022/10/26 03:22:32;;;;;;;4.07;3.17;;;11.70;47.20;;;;;;5015264;28;20562;-45
2022/10/26 03:24:58;;;;;;;5.40;3.90;;;11.80;47.20;;;;;;5015481;28;20175;-42
2022/10/26 03:27:25;;;;;;;3.83;3.43;;;11.70;47.30;;;;;;5014925;28;20174;-44
2022/10/26 03:29:51;;;;;;;4.50;3.63;;;11.70;47.30;;;;;;5015566;28;20175;-42
2022/10/26 03:32:17;;;;;;;5.63;3.45;;;11.70;47.40;;;;;;5015525;28;20276;-43
2022/10/26 03:34:43;;;;;;;6.40;3.70;;;11.70;47.40;;;;;;5015298;28;20206;-43
2022/10/26 03:37:09;;;;;;;6.17;3.90;;;11.70;47.40;;;;;;5014582;28;20460;-43
2022/10/26 03:39:35;;;;;;;6.03;3.30;;;11.70;47.30;;;;;;5015424;28;20821;-44
2022/10/26 03:42:00;;;;;;;7.23;3.93;;;11.70;47.30;;;;;;5015106;28;20822;-42
2022/10/26 03:44:26;;;;;;;4.63;3.80;;;11.60;47.10;;;;;;5015080;28;20175;-44
2022/10/26 03:46:52;;;;;;;8.60;3.87;;;11.60;47.20;;;;;;5014500;28;20171;-43
2022/10/26 03:49:17;;;;;;;8.27;3.80;;;11.60;47.40;;;;;;5015253;28;20659;-44
2022/10/26 03:51:43;;;;;;;7.30;4.00;;;11.60;47.40;;;;;;5014809;28;20532;-44
2022/10/26 03:54:09;;;;;;;6.47;4.00;;;11.50;47.50;;;;;;5014887;28;20202;-44
2022/10/26 03:56:34;;;;;;;7.27;3.83;;;11.50;47.70;;;;;;5014290;28;20377;-41
2022/10/26 03:59:00;;;;;;;6.10;3.70;;;11.50;47.70;;;;;;5015087;28;20171;-42
2022/10/26 04:01:26;;;;;;;5.30;3.80;;;11.50;47.60;;;;;;5014580;28;20305;-43
2022/10/26 04:03:52;;;;;;;5.10;3.67;;;11.50;47.50;;;;;;5014689;28;20229;-43
2022/10/26 04:06:17;;;;;;;4.57;3.73;;;11.50;48.10;;;;;;5014459;28;20225;-42
2022/10/26 04:08:43;;;;;;;4.50;3.53;;;11.50;47.30;;;;;;5014959;28;20221;-42
2022/10/26 04:11:09;;;;;;;4.77;3.17;;;11.50;47.10;;;;;;5014484;28;20194;-43
2022/10/26 04:13:34;;;;;;;6.30;4.10;;;11.50;47.20;;;;;;5014394;28;20189;-43
2022/10/26 04:16:00;;;;;;;4.33;3.93;;;11.50;47.20;;;;;;5013918;28;20174;-43
2022/10/26 04:18:26;;;;;;;12.30;4.70;;;11.50;47.30;;;;;;5014396;28;20179;-44
2022/10/26 04:20:52;;;;;;;4.40;3.60;;;11.40;47.10;;;;;;5014464;28;20594;-42
2022/10/26 04:23:18;;;;;;;7.00;4.37;;;11.50;47.20;;;;;;5014418;28;20204;-42
2022/10/26 04:25:44;;;;;;;4.90;3.65;;;11.40;47.10;;;;;;5013824;28;20166;-44
2022/10/26 04:28:12;;;;;;;4.80;3.87;;;11.40;47.10;;;;;;5014347;28;20181;-41
2022/10/26 04:30:38;;;;;;;6.07;3.80;;;11.40;47.20;;;;;;5014773;28;20464;-42
2022/10/26 04:33:05;;;;;;;5.20;4.30;;;11.40;47.30;;;;;;5014189;28;20189;-43
2022/10/26 04:35:31;;;;;;;5.88;4.47;;;11.40;47.20;;;;;;5014070;28;20213;-44
2022/10/26 04:38:03;;;;;;;4.57;3.65;;;11.40;47.20;;;;;;5013788;28;20201;-43
2022/10/26 04:40:30;;;;;;;6.38;4.85;;;11.40;47.10;;;;;;5013907;28;20198;-44
2022/10/26 04:42:56;;;;;;;5.50;4.55;;;11.40;47.10;;;;;;5013982;28;20590;-44
2022/10/26 04:45:22;;;;;;;8.50;4.15;;;11.30;47.00;;;;;;5013982;28;20512;-44
2022/10/26 04:48:05;;;;;;;5.87;5.27;;;11.30;47.10;;;;;;5013342;28;20182;-43
2022/10/26 04:50:31;;;;;;;5.78;5.20;;;11.20;47.30;;;;;;5014053;28;20177;-45
2022/10/26 04:52:57;;;;;;;5.50;4.15;;;11.20;47.50;;;;;;5013752;28;20183;-43
2022/10/26 04:55:23;;;;;;;6.43;4.20;;;11.20;47.50;;;;;;5013784;28;20194;-45
2022/10/26 04:57:49;;;;;;;5.67;4.40;;;11.20;47.30;;;;;;5013223;28;20178;-45
2022/10/26 05:00:14;;;;;;;7.50;4.70;;;11.20;47.20;;;;;;5013795;28;20179;-43
2022/10/26 05:02:40;;;;;;;6.93;4.83;;;11.20;47.00;;;;;;5013511;28;20202;-42
2022/10/26 05:05:06;;;;;;;7.07;5.50;;;11.10;47.40;;;;;;5013544;28;20495;-43
2022/10/26 05:07:32;;;;;;;7.57;4.68;;;11.10;47.50;;;;;;5012925;28;20206;-43
2022/10/26 05:09:58;;;;;;;8.50;4.90;;;11.10;47.50;;;;;;5013474;28;20203;-43
2022/10/26 05:12:23;;;;;;;9.93;5.30;;;11.10;47.50;;;;;;5013376;28;20289;-43
2022/10/26 05:14:49;;;;;;;6.17;5.00;;;11.10;47.40;;;;;;5013320;28;20182;-44
2022/10/26 05:17:15;;;;;;;8.37;5.47;;;11.10;47.40;;;;;;5012976;28;20181;-44
2022/10/26 05:19:40;;;;;;;5.60;4.50;;;11.10;47.30;;;;;;5013264;28;20232;-43
2022/10/26 05:22:06;;;;;;;10.20;5.20;;;11.10;47.30;;;;;;5013523;28;20206;-42
2022/10/26 05:24:32;;;;;;;6.57;4.47;;;11.10;47.10;;;;;;5012429;28;20249;-43
2022/10/26 05:26:58;;;;;;;8.10;4.03;;;11.10;47.10;;;;;;5012658;28;20171;-44
2022/10/26 05:29:23;;;;;;;7.40;4.97;;;11.00;47.20;;;;;;5013124;28;20163;-44
2022/10/26 05:31:49;;;;;;;5.70;4.40;;;11.00;47.80;;;;;;5013306;28;20204;-44
2022/10/26 05:34:15;;;;;;;7.00;5.43;;;11.00;47.80;;;;;;5013337;28;20747;-42
2022/10/26 05:36:40;;;;;;;8.67;4.93;;;11.00;47.70;;;;;;5012373;28;20651;-44
2022/10/26 05:39:06;;;;;;;6.20;4.80;;;11.10;47.60;;;;;;5012938;28;20171;-44
2022/10/26 05:41:32;;;;;;;4.93;4.33;;;11.10;47.60;;;;;;5012787;28;20274;-42
2022/10/26 05:43:58;;;;;;;8.77;4.60;;;11.10;47.70;;;;;;5012908;28;20213;-44
2022/10/26 05:46:23;;;;;;;9.00;5.10;;;11.10;47.70;;;;;;5012260;28;20219;-43
2022/10/26 05:48:49;;;;;;;7.30;5.07;;;11.10;47.60;;;;;;5012808;28;20167;-42
2022/10/26 05:51:15;;;;;;;8.90;4.70;;;11.10;47.50;;;;;;5012801;28;20338;-43
2022/10/26 05:53:41;;;;;;;5.97;5.00;;;11.10;47.40;;;;;;5012705;28;20663;-42
2022/10/26 05:56:34;;;;;;;6.83;4.90;;;11.00;47.30;;;;;;5012201;28;20449;-42
2022/10/26 05:59:00;;;;;;;9.10;5.03;;;11.00;47.10;;;;;;5009615;28;20684;-44
2022/10/26 06:01:46;;;;;;;9.98;5.68;;;11.00;47.30;;;;;;5012392;28;20222;-42
2022/10/26 06:04:30;;;;;;;6.30;5.00;;;11.00;47.80;;;;;;5012623;28;20171;-41
2022/10/26 06:06:57;;;;;;;8.68;5.30;;;11.00;47.90;;;;;;5012015;28;20216;-42
2022/10/26 06:09:23;;;;;;;5.78;5.20;;;11.00;47.90;;;;;;5012602;28;20650;-43
2022/10/26 06:11:49;;;;;;;6.15;4.90;;;11.10;47.90;;;;;;5012420;28;20285;-43
2022/10/26 06:14:15;;;;;;;7.80;5.45;;;11.00;47.80;;;;;;5012432;28;20726;-42
2022/10/26 06:17:03;;;;;;;8.88;5.30;;;11.10;48.00;;;;;;5012079;28;20208;-42
2022/10/26 06:19:35;;;;;;;19.08;6.65;;;11.10;48.10;;;;;;5012247;28;20182;-42
2022/10/26 06:22:20;;;;;;;8.45;6.40;;;11.10;48.40;;;;;;5012268;28;20256;-44
2022/10/26 06:25:12;;;;;;;13.68;8.98;;;11.20;48.50;;;;;;5012302;28;20249;-43
2022/10/26 06:27:42;;;;;;;8.85;6.68;;;11.40;48.50;;;;;;5002686;28;20183;-42
2022/10/26 06:30:10;;;;;;;9.45;5.93;;;11.60;48.30;;;;;;5012333;28;20170;-42
2022/10/26 06:32:38;;;;;;;8.43;7.32;;;11.70;48.00;;;;;;5012072;28;20281;-44
2022/10/26 06:35:28;;;;;;;12.80;6.20;;;11.90;47.80;;;;;;5012690;28;20174;-43
2022/10/26 06:37:55;;;;;;;8.13;6.65;;;12.00;47.60;;;;;;5015937;28;20638;-44
2022/10/26 06:40:22;;;;;;;7.95;5.53;;;12.20;47.50;;;;;;5016145;28;20181;-43
2022/10/26 06:42:48;;;;;;;10.68;5.55;;;12.40;47.50;;;;;;5016179;28;20187;-43
2022/10/26 06:45:15;;;;;;;9.90;6.53;;;12.60;47.30;;;;;;5016133;28;20175;-42
2022/10/26 06:47:45;;;;;;;10.52;6.03;;;12.90;47.20;;;;;;5015716;28;20178;-45
2022/10/26 06:50:24;;;;;;;11.13;7.18;;;13.20;46.90;;;;;;5016367;28;20179;-44
2022/10/26 06:53:19;;;;;;;11.73;7.80;;;13.60;46.40;;;;;;5015903;28;20186;-44
2022/10/26 06:55:48;;;;;;;11.27;5.68;;;14.00;45.90;;;;;;5015498;28;20649;-44
2022/10/26 06:58:17;;;;;;;7.90;6.85;;;14.30;45.50;;;;;;5016078;28;20520;-43
2022/10/26 07:00:45;;;;;;;7.43;5.43;;;14.50;45.30;;;;;;5015646;28;20260;-43
2022/10/26 07:03:11;;;;;;;7.03;5.45;;;14.60;44.80;;;;;;5015825;28;20659;-42
2022/10/26 07:05:37;;;;;;;19.83;6.67;;;14.60;45.00;;;;;;5015311;28;20724;-42
2022/10/26 07:08:04;;;;;;;10.43;6.23;;;14.70;45.20;;;;;;5015839;28;20430;-43
2022/10/26 07:10:29;;;;;;;6.47;5.43;;;14.90;45.30;;;;;;5015856;28;20228;-43
2022/10/26 07:12:55;;;;;;;8.87;6.93;;;15.20;45.60;;;;;;5015631;28;20613;-42
2022/10/26 07:15:21;;;;;;;10.23;7.10;;;15.50;45.70;;;;;;5015670;28;20434;-43
2022/10/26 07:17:48;;;;;;;8.50;5.83;;;15.80;45.40;;;;;;5015069;28;20433;-44
2022/10/26 07:20:15;;;;;;;10.77;7.00;;;16.20;45.00;;;;;;5015478;28;20496;-44
2022/10/26 07:22:41;;;;;;;10.27;7.35;;;16.50;44.70;;;;;;5015684;28;20195;-43
2022/10/26 07:25:08;;;;;;;8.45;6.47;;;16.50;44.30;;;;;;5015723;28;20175;-44
2022/10/26 07:27:34;;;;;;;8.70;6.55;;;16.50;44.20;;;;;;5015059;28;20174;-43
2022/10/26 07:30:00;;;;;;;7.63;6.30;;;16.30;44.10;;;;;;5015461;28;20171;-44
2022/10/26 07:32:26;;;;;;;11.23;7.00;;;16.00;44.20;;;;;;5015069;28;20221;-43
2022/10/26 07:34:51;;;;;;;10.93;7.67;;;15.90;44.80;;;;;;5015251;28;20179;-42
2022/10/26 07:37:17;;;;;;;12.30;6.60;;;16.20;45.50;;;;;;5014690;28;20207;-44
2022/10/26 07:39:43;;;;;;;10.40;6.70;;;16.40;45.40;;;;;;5015289;28;20228;-44
2022/10/26 07:42:08;;;;;;;6.80;5.60;;;16.60;44.80;;;;;;5015004;28;20398;-44
2022/10/26 07:44:34;;;;;;;10.90;6.77;;;17.00;44.30;;;;;;5015133;28;20257;-44
2022/10/26 07:47:00;;;;;;;14.33;7.63;;;17.20;44.00;;;;;;5013802;28;20175;-42
2022/10/26 07:49:26;;;;;;;8.27;6.13;;;17.60;43.70;;;;;;5015258;28;20260;-43
2022/10/26 07:51:51;;;;;;;9.87;7.00;;;17.60;43.30;;;;;;5014940;28;20191;-43
2022/10/26 07:54:17;;;;;;;8.93;6.97;;;17.50;43.10;;;;;;5014996;28;20170;-43
2022/10/26 07:56:43;;;;;;;6.13;5.53;;;17.30;43.60;;;;;;5014409;28;20167;-43
2022/10/26 07:59:12;;;;;;;9.47;6.50;;;17.30;44.40;;;;;;5015172;28;20207;-42
2022/10/26 08:01:37;;;;;;;7.60;5.93;;;17.30;44.60;;;;;;5014345;28;20214;-42
2022/10/26 08:04:03;;;;;;;7.50;6.70;;;17.20;44.50;;;;;;5015030;28;20179;-42
2022/10/26 08:06:29;;;;;;;7.10;5.90;;;17.20;44.40;;;;;;5014414;28;20172;-43
2022/10/26 08:08:54;;;;;;;10.27;7.53;;;17.30;44.80;;;;;;5014487;28;20659;-44
2022/10/26 08:11:20;;;;;;;9.40;6.43;;;17.40;44.90;;;;;;5014570;28;20605;-43
2022/10/26 08:13:46;;;;;;;9.80;7.60;;;17.40;44.60;;;;;;5014642;28;20258;-43
2022/10/26 08:16:12;;;;;;;11.20;6.87;;;17.30;44.20;;;;;;5013797;28;20595;-44
2022/10/26 08:18:38;;;;;;;9.35;7.03;;;17.20;44.40;;;;;;5014756;28;20170;-44
2022/10/26 08:21:06;;;;;;;8.87;7.30;;;17.10;44.80;;;;;;5014548;28;20690;-43
2022/10/26 08:23:32;;;;;;;12.20;6.97;;;17.00;45.20;;;;;;5014411;28;20250;-44
2022/10/26 08:26:01;;;;;;;10.20;6.10;;;16.90;45.70;;;;;;5013829;28;20205;-43
2022/10/26 08:28:28;;;;;;;10.23;7.60;;;16.90;45.80;;;;;;5014505;28;20405;-45
2022/10/26 08:30:54;;;;;;;15.57;8.30;;;16.90;45.60;;;;;;5014364;28;20206;-44
2022/10/26 08:33:21;;;;;;;7.60;5.75;;;17.10;46.10;;;;;;5014115;28;20178;-44
2022/10/26 08:35:48;;;;;;;9.85;6.47;;;17.40;45.80;;;;;;5013492;28;20646;-44
2022/10/26 08:38:14;;;;;;;8.30;6.95;;;17.80;45.80;;;;;;5014121;28;20182;-44
2022/10/26 08:40:42;;;;;;;9.05;7.20;;;18.40;45.40;;;;;;5014107;28;20207;-43
2022/10/26 08:43:28;;;;;;;11.70;7.93;;;18.80;44.40;;;;;;5014233;28;20178;-44
2022/10/26 08:46:04;;;;;;;11.68;6.90;;;19.00;43.50;;;;;;5013343;28;20171;-43
2022/10/26 08:48:35;;;;;;;8.38;6.78;;;19.10;42.90;;;;;;5013955;28;20154;-43
2022/10/26 08:51:14;;;;;;;8.70;6.88;;;19.40;43.10;;;;;;5013860;28;20204;-44
2022/10/26 08:53:48;;;;;;;6.88;6.10;;;19.90;42.10;;;;;;5013817;28;20165;-43
2022/10/26 08:56:22;;;;;;;8.05;6.05;;;20.10;42.20;;;;;;5013382;28;20185;-43
2022/10/26 08:59:14;;;;;;;7.03;6.32;;;20.20;41.40;;;;;;5013629;28;20213;-43
2022/10/26 09:01:39;;;;;;;9.27;7.03;;;20.30;42.30;;;;;;4976083;28;20591;-43
2022/10/26 09:04:10;;;;;;;6.43;5.30;;;20.30;40.30;;;;;;5013592;28;20659;-43
2022/10/26 09:06:50;;;;;;;9.38;5.82;;;20.30;41.00;;;;;;5012971;28;20571;-44
2022/10/26 09:09:28;;;;;;;10.75;6.13;;;20.30;41.30;;;;;;5013871;28;20171;-42
2022/10/26 09:11:56;;;;;;;9.52;5.95;;;20.20;41.10;;;;;;5013525;28;20186;-42
2022/10/26 09:14:44;;;;;;;8.77;5.93;;;20.10;41.30;;;;;;5013340;28;20261;-42
2022/10/26 09:17:26;;;;;;;6.22;5.53;;;20.00;42.10;;;;;;5012850;28;20824;-42
2022/10/26 09:20:13;;;;;;;8.43;5.85;;;20.00;42.60;;;;;;5013497;28;20224;-43
2022/10/26 09:23:00;;;;;;;11.70;6.65;;;20.10;41.90;;;;;;5013084;28;20198;-43
2022/10/26 09:25:31;;;;;;;6.88;6.22;;;20.00;41.70;;;;;;5013294;28;20166;-43
2022/10/26 09:27:59;;;;;;;11.23;6.55;;;19.90;42.90;;;;;;5012972;28;20174;-42
2022/10/26 09:30:26;;;;;;;7.72;5.38;;;20.00;42.60;;;;;;5013054;28;20182;-43
2022/10/26 09:33:01;;;;;;;6.88;6.10;;;20.00;42.90;;;;;;5013306;28;20214;-45
2022/10/26 09:35:48;;;;;;;6.68;5.88;;;20.10;43.10;;;;;;5013008;28;20220;-43
2022/10/26 09:38:27;;;;;;;10.20;6.25;;;20.00;42.50;;;;;;5012971;28;20178;-43
2022/10/26 09:41:04;;;;;;;12.70;6.20;;;20.20;42.70;;;;;;5012946;28;20883;-42
2022/10/26 09:44:23;;;;;;;11.60;5.80;;;20.10;42.20;;;;;;5012859;28;20284;-42
2022/10/26 09:46:56;;;;;;;12.32;6.25;;;20.00;42.50;;;;;;4980081;28;20182;-42
2022/10/26 09:49:49;;;;;;;6.30;5.25;;;19.90;43.00;;;;;;5013187;28;20182;-43
2022/10/26 09:52:15;;;;;;;7.38;6.43;;;19.90;43.00;;;;;;5012671;28;20253;-43
2022/10/26 09:54:42;;;;;;;6.53;5.90;;;20.00;43.00;;;;;;5013056;28;20178;-44
2022/10/26 09:57:11;;;;;;;7.50;6.65;;;20.10;43.40;;;;;;5012233;28;20650;-45
2022/10/26 09:59:39;;;;;;;10.32;7.00;;;20.50;43.10;;;;;;5012564;28;20906;-42
2022/10/26 10:02:43;;;;;;;9.80;6.05;;;21.10;42.20;;;;;;5012426;28;20252;-44
2022/10/26 10:05:36;;;;;;;11.93;7.47;;;21.50;41.30;;;;;;5012819;28;20193;-42
2022/10/26 10:08:26;;;;;;;9.23;6.07;;;21.60;40.90;;;;;;5012832;28;20159;-44
2022/10/26 10:11:04;;;;;;;8.07;6.45;;;21.60;40.00;;;;;;5012225;28;20170;-45
2022/10/26 10:13:38;;;;;;;7.95;6.45;;;21.60;40.80;;;;;;5012542;28;20789;-44
2022/10/26 10:16:33;;;;;;;8.85;7.53;;;21.60;41.20;;;;;;5012189;28;20166;-45
2022/10/26 10:19:00;;;;;;;11.77;6.47;;;21.60;40.40;;;;;;4994163;28;20212;-43
2022/10/26 10:21:38;;;;;;;7.75;6.07;;;21.50;40.80;;;;;;5012215;28;20254;-43
2022/10/26 10:24:28;;;;;;;7.30;5.95;;;21.40;40.80;;;;;;5012362;28;20185;-44
2022/10/26 10:27:14;;;;;;;8.70;5.65;;;21.40;41.40;;;;;;5011810;28;20175;-45
2022/10/26 10:29:45;;;;;;;11.25;6.30;;;21.50;41.10;;;;;;5012182;28;20174;-43
2022/10/26 10:32:16;;;;;;;8.25;5.18;;;21.50;40.60;;;;;;5012490;28;20243;-44
2022/10/26 10:34:42;;;;;;;7.70;6.35;;;21.40;40.40;;;;;;5012188;28;20179;-44
2022/10/26 10:37:30;;;;;;;8.82;6.55;;;21.30;40.90;;;;;;5011674;28;20197;-45
2022/10/26 10:40:01;;;;;;;10.70;5.68;;;21.30;41.00;;;;;;5012345;28;20233;-43
2022/10/26 10:42:32;;;;;;;10.75;6.32;;;21.30;41.70;;;;;;5011994;28;20240;-44
2022/10/26 10:45:00;;;;;;;8.70;5.43;;;21.40;41.90;;;;;;5012238;28;20523;-42
2022/10/26 10:47:36;;;;;;;7.30;5.70;;;21.50;41.40;;;;;;5011514;28;20179;-44
2022/10/26 10:50:15;;;;;;;7.78;4.72;;;21.60;40.90;;;;;;5012186;28;20551;-44
2022/10/26 10:52:41;;;;;;;5.90;5.07;;;21.70;41.80;;;;;;5012110;28;20658;-45
2022/10/26 10:55:13;;;;;;;8.63;5.27;;;21.80;40.50;;;;;;5012354;28;20190;-45
2022/10/26 10:58:03;;;;;;;6.23;5.10;;;21.90;41.30;;;;;;5011349;28;20504;-44
2022/10/26 11:00:32;;;;;;;10.77;4.13;;;22.10;40.80;;;;;;5012020;28;20892;-44
2022/10/26 11:03:10;;;;;;;7.27;4.77;;;22.20;40.10;;;;;;5011767;28;20755;-43
2022/10/26 11:05:58;;;;;;;4.70;4.00;;;22.40;40.30;;;;;;5011547;28;20406;-44
2022/10/26 11:08:49;;;;;;;5.80;4.17;;;22.70;40.10;;;;;;5012087;28;20426;-43
2022/10/26 11:11:33;;;;;;;6.17;4.00;;;22.90;39.30;;;;;;5012093;28;20430;-41
2022/10/26 11:14:03;;;;;;;5.07;3.43;;;23.40;39.00;;;;;;5012019;28;20413;-43
2022/10/26 11:16:39;;;;;;;6.30;3.70;;;23.80;38.40;;;;;;5011249;28;20782;-44
2022/10/26 11:19:05;;;;;;;6.33;2.90;;;24.00;37.40;;;;;;5011764;28;20405;-42
2022/10/26 11:21:36;;;;;;;5.63;3.57;;;24.00;36.70;;;;;;5011624;28;20544;-42
2022/10/26 11:24:12;;;;;;;3.60;2.57;;;24.00;36.60;;;;;;5015405;28;20206;-43
2022/10/26 11:26:44;;;;;;;7.27;3.53;;;24.30;36.30;;;;;;5014744;28;20499;-43
2022/10/26 11:29:26;;;;;;;3.30;2.80;;;24.30;36.80;;;;;;5015396;28;20377;-41
2022/10/26 11:32:13;;;;;;;4.07;2.77;;;24.40;35.70;;;;;;5015259;28;20436;-43
2022/10/26 11:34:59;;;;;;;5.13;2.33;;;24.20;35.60;;;;;;5015497;28;20463;-42
2022/10/26 11:37:36;;;;;;;6.60;3.50;;;24.10;35.80;;;;;;5014767;28;20393;-42
2022/10/26 11:40:26;;;;;;;4.67;2.30;;;24.00;36.40;;;;;;5016020;28;20398;-43
2022/10/26 11:43:01;;;;;;;3.17;2.47;;;24.00;36.50;;;;;;5015036;28;20433;-43
2022/10/26 11:46:09;;;;;;;4.87;2.37;;;24.00;36.70;;;;;;5015075;28;20404;-42
2022/10/26 11:48:43;;;;;;;4.70;2.37;;;23.90;36.20;;;;;;5001772;28;20438;-44
2022/10/26 11:51:36;;;;;;;5.80;2.43;;;24.00;36.70;;;;;;5014852;28;20763;-42
2022/10/26 11:54:12;;;;;;;2.13;1.90;;;24.20;36.70;;;;;;5014515;28;20417;-41
2022/10/26 11:56:44;;;;;;;5.37;3.10;;;24.50;35.40;;;;;;5014335;28;20408;-43
2022/10/26 11:59:25;;;;;;;4.33;2.70;;;24.90;35.90;;;;;;5014834;28;20882;-42
2022/10/26 12:02:12;;;;;;;3.40;2.10;;;25.40;34.20;;;;;;5014566;28;20472;-43
2022/10/26 12:04:40;;;;;;;2.93;2.20;;;25.70;32.60;;;;;;5013996;28;20483;-44
2022/10/26 12:07:14;;;;;;;4.80;2.10;;;25.70;33.60;;;;;;5014129;28;20417;-42
2022/10/26 12:09:42;;;;;;;4.30;2.70;;;25.70;33.90;;;;;;5014657;28;20906;-43
2022/10/26 12:12:31;;;;;;;5.43;2.13;;;25.70;35.10;;;;;;5014317;28;20429;-42
2022/10/26 12:15:17;;;;;;;4.57;2.87;;;25.70;35.00;;;;;;5014862;28;20421;-43
2022/10/26 12:18:12;;;;;;;7.90;2.80;;;25.70;34.10;;;;;;5013993;28;20778;-43
2022/10/26 12:21:02;;;;;;;5.20;3.30;;;25.80;34.80;;;;;;5014314;28;20409;-43
2022/10/26 12:23:30;;;;;;;4.43;2.60;;;25.90;35.00;;;;;;5014374;28;20913;-43
2022/10/26 12:26:22;;;;;;;3.00;2.57;;;26.10;35.20;;;;;;5013710;28;20476;-43
2022/10/26 12:29:01;;;;;;;3.40;2.70;;;26.30;35.20;;;;;;5003857;28;20426;-43
2022/10/26 12:31:36;;;;;;;3.20;2.30;;;26.30;34.30;;;;;;5014890;28;20468;-42
2022/10/26 12:34:04;;;;;;;3.90;2.30;;;26.20;32.90;;;;;;5015005;28;20409;-43
2022/10/26 12:36:54;;;;;;;3.47;2.43;;;26.10;32.90;;;;;;5014167;28;20410;-43
2022/10/26 12:39:31;;;;;;;3.00;2.07;;;25.90;31.90;;;;;;5014391;28;20747;-43
2022/10/26 12:41:58;;;;;;;5.37;2.70;;;25.70;32.70;;;;;;5014239;28;20974;-42
2022/10/26 12:44:59;;;;;;;2.10;1.80;;;25.60;33.40;;;;;;5014050;28;20440;-43
2022/10/26 12:47:27;;;;;;;5.27;1.77;;;25.90;34.50;;;;;;5013328;28;20421;-43
2022/10/26 12:50:05;;;;;;;3.60;1.90;;;26.00;34.80;;;;;;5014011;28;20405;-43
2022/10/26 12:52:51;;;;;;;2.60;1.47;;;26.20;34.60;;;;;;5013857;28;20429;-43
2022/10/26 12:55:29;;;;;;;3.40;2.00;;;26.50;32.90;;;;;;5013676;28;20959;-43
2022/10/26 12:58:18;;;;;;;6.07;1.77;;;26.50;33.50;;;;;;5013588;28;20489;-43
2022/10/26 13:00:57;;;;;;;3.63;1.60;;;26.50;33.50;;;;;;5013728;28;20533;-43
2022/10/26 13:03:33;;;;;;;3.40;1.53;;;27.00;33.10;;;;;;5014152;28;20398;-43
2022/10/26 13:06:28;;;;;;;3.50;1.27;;;26.90;32.80;;;;;;5013417;28;20448;-43
2022/10/26 13:08:55;;;;;;;3.80;1.67;;;26.60;32.80;;;;;;5013361;28;20401;-42
2022/10/26 13:11:51;;;;;;;3.60;1.50;;;26.20;34.10;;;;;;5013443;28;20444;-42
2022/10/26 13:14:22;;;;;;;5.20;1.73;;;25.80;33.00;;;;;;5012899;28;21001;-43